Time;durP1;ratioP1;P1;durP2;ratioP2;P2;SDS_P1;SDS_P2;PMS_P1;PMS_P2;Temp;Humidity;BMP_temperature;BMP_pressure;BME280_temperature;BME280_humidity;BME280_pressure;Samples;Min_cycle;Max_cycle;Signal;HPM_P1;HPM_P2
2023/06/20 00:00:54;;;;;;;18.67;16.67;;;17.00;99.90;;;;;;5114828;27;20055;-38
2023/06/20 00:03:19;;;;;;;18.17;16.25;;;17.00;99.90;;;;;;5114908;27;20098;-39
2023/06/20 00:05:45;;;;;;;18.75;16.77;;;17.00;99.90;;;;;;5116081;27;20066;-39
2023/06/20 00:08:11;;;;;;;18.92;17.00;;;17.00;99.90;;;;;;5114973;27;20507;-38
2023/06/20 00:10:36;;;;;;;21.02;17.33;;;17.00;99.90;;;;;;5097160;27;20420;-38
2023/06/20 00:13:02;;;;;;;19.70;17.65;;;17.00;99.90;;;;;;5114444;27;20046;-39
2023/06/20 00:15:28;;;;;;;19.27;17.42;;;17.00;99.90;;;;;;5115097;27;20094;-38
2023/06/20 00:17:56;;;;;;;20.45;17.92;;;17.00;99.90;;;;;;5114323;27;20112;-39
2023/06/20 00:20:21;;;;;;;20.20;18.02;;;17.00;99.90;;;;;;5115955;27;20046;-39
2023/06/20 00:22:50;;;;;;;19.70;17.63;;;17.00;99.90;;;;;;5114905;27;20542;-39
2023/06/20 00:25:17;;;;;;;19.58;17.55;;;17.00;99.90;;;;;;5115539;27;20058;-38
2023/06/20 00:27:43;;;;;;;20.30;18.17;;;17.00;99.90;;;;;;5134542;27;20059;-38
2023/06/20 00:30:09;;;;;;;20.17;17.90;;;17.00;99.90;;;;;;5135650;27;20104;-38
2023/06/20 00:32:35;;;;;;;20.55;18.35;;;17.00;99.90;;;;;;5134326;27;20509;-38
2023/06/20 00:35:00;;;;;;;22.42;18.60;;;17.00;99.90;;;;;;5110374;27;20051;-38
2023/06/20 00:37:27;;;;;;;21.20;18.58;;;17.00;99.90;;;;;;5124471;27;20039;-38
2023/06/20 00:39:52;;;;;;;20.45;18.00;;;17.10;99.90;;;;;;5104068;27;20050;-39
2023/06/20 00:42:25;;;;;;;21.38;19.08;;;17.00;99.90;;;;;;5115383;27;20412;-38
2023/06/20 00:44:51;;;;;;;21.88;18.15;;;17.10;99.90;;;;;;5098601;27;20130;-38
2023/06/20 00:47:18;;;;;;;23.83;18.75;;;17.10;99.90;;;;;;5116209;27;20116;-39
2023/06/20 00:49:49;;;;;;;21.00;17.45;;;17.10;99.90;;;;;;5136583;27;20047;-38
2023/06/20 00:52:16;;;;;;;21.42;18.73;;;17.10;99.90;;;;;;5135625;27;20481;-38
2023/06/20 00:54:44;;;;;;;22.58;19.98;;;17.10;99.90;;;;;;5117204;27;20057;-38
2023/06/20 00:57:12;;;;;;;20.50;18.45;;;17.10;99.90;;;;;;5134784;27;20062;-38
2023/06/20 00:59:38;;;;;;;19.73;17.50;;;17.10;99.90;;;;;;5076787;27;20059;-38
2023/06/20 01:02:04;;;;;;;23.20;18.17;;;17.10;99.90;;;;;;5113363;27;20051;-39
2023/06/20 01:04:31;;;;;;;24.02;18.50;;;17.10;99.90;;;;;;5113861;27;20062;-39
2023/06/20 01:07:07;;;;;;;23.15;19.38;;;17.10;99.90;;;;;;5113638;27;20501;-38
2023/06/20 01:09:55;;;;;;;21.83;19.42;;;17.10;99.90;;;;;;5114506;27;20093;-38
2023/06/20 01:12:44;;;;;;;22.42;20.02;;;17.10;99.90;;;;;;5095380;27;20481;-38
2023/06/20 01:15:22;;;;;;;24.17;20.92;;;17.00;99.90;;;;;;5114671;27;20126;-38
2023/06/20 01:18:12;;;;;;;22.25;20.10;;;17.00;99.90;;;;;;5095317;27;20051;-38
2023/06/20 01:20:43;;;;;;;22.83;20.27;;;17.00;99.90;;;;;;5113192;27;20046;-38
2023/06/20 01:23:51;;;;;;;23.42;21.15;;;17.00;99.90;;;;;;5095284;28;20400;-38
2023/06/20 01:26:24;;;;;;;23.88;21.27;;;17.00;99.90;;;;;;4996898;28;20513;-39
2023/06/20 01:28:57;;;;;;;26.95;21.25;;;17.00;99.90;;;;;;5009867;28;20068;-38
2023/06/20 01:31:29;;;;;;;25.05;21.50;;;17.00;99.90;;;;;;4993357;28;20073;-39
2023/06/20 01:34:22;;;;;;;25.13;22.63;;;17.10;99.90;;;;;;4992875;28;20127;-38
2023/06/20 01:36:52;;;;;;;;;;;17.00;99.90;;;;;;4998741;28;20058;-39
2023/06/20 01:39:48;;;;;;;26.02;22.55;;;17.00;99.90;;;;;;5009743;28;19987;-38
2023/06/20 01:42:16;;;;;;;27.20;23.15;;;17.00;99.90;;;;;;4972316;28;20136;-39
2023/06/20 01:44:43;;;;;;;25.98;23.17;;;17.00;99.90;;;;;;4984220;28;20068;-39
2023/06/20 01:47:11;;;;;;;27.25;24.25;;;17.00;99.90;;;;;;5007265;28;20435;-39
2023/06/20 01:49:38;;;;;;;27.30;22.90;;;17.00;99.90;;;;;;5010289;28;20049;-39
2023/06/20 01:52:05;;;;;;;28.17;22.17;;;17.00;99.90;;;;;;5009678;28;20049;-39
2023/06/20 01:54:33;;;;;;;25.02;22.42;;;17.00;99.90;;;;;;4998519;28;20062;-39
2023/06/20 01:57:00;;;;;;;24.35;21.85;;;17.00;99.90;;;;;;5007586;28;20064;-38
2023/06/20 01:59:27;;;;;;;26.23;23.13;;;17.00;99.90;;;;;;5025467;28;20486;-39
2023/06/20 02:01:55;;;;;;;24.58;22.02;;;17.00;99.90;;;;;;5105556;27;20540;-39
2023/06/20 02:04:22;;;;;;;24.33;21.85;;;17.00;99.90;;;;;;5112629;27;20054;-39
2023/06/20 02:06:50;;;;;;;24.50;21.90;;;17.00;99.90;;;;;;5111614;27;20050;-39
2023/06/20 02:09:16;;;;;;;23.90;21.15;;;17.00;99.90;;;;;;5127370;27;20125;-39
2023/06/20 02:11:47;;;;;;;23.92;21.25;;;17.00;99.90;;;;;;5081476;28;20096;-38
2023/06/20 02:14:14;;;;;;;23.60;21.38;;;17.00;99.90;;;;;;5095680;28;20097;-38
2023/06/20 02:16:40;;;;;;;24.80;20.88;;;17.00;99.90;;;;;;5113370;27;20124;-39
2023/06/20 02:19:07;;;;;;;24.50;21.88;;;17.00;99.90;;;;;;5113637;27;20050;-38
2023/06/20 02:21:37;;;;;;;22.17;19.75;;;17.00;99.90;;;;;;5113324;27;20432;-39
2023/06/20 02:24:06;;;;;;;23.70;21.02;;;17.00;99.90;;;;;;5113448;27;20398;-39
2023/06/20 02:26:34;;;;;;;24.98;21.10;;;17.00;99.90;;;;;;5094469;28;20055;-39
2023/06/20 02:29:05;;;;;;;22.98;20.65;;;17.00;99.90;;;;;;5113748;27;20096;-38
2023/06/20 02:31:40;;;;;;;22.88;20.55;;;17.00;99.90;;;;;;5097535;27;20051;-39
2023/06/20 02:34:11;;;;;;;23.35;20.92;;;17.00;99.90;;;;;;5114744;27;20531;-39
2023/06/20 02:36:38;;;;;;;23.15;20.45;;;17.00;99.90;;;;;;5118090;27;20054;-38
2023/06/20 02:39:07;;;;;;;21.15;18.95;;;17.00;99.90;;;;;;5130370;27;20408;-39
2023/06/20 02:41:32;;;;;;;24.10;21.50;;;17.00;99.90;;;;;;5100765;27;20042;-38
2023/06/20 02:43:58;;;;;;;23.70;20.63;;;17.00;99.90;;;;;;5120540;27;20070;-38
2023/06/20 02:46:59;;;;;;;23.52;21.08;;;17.00;99.90;;;;;;5138277;27;20839;-38
2023/06/20 02:49:37;;;;;;;22.67;20.27;;;17.00;99.90;;;;;;5138463;27;20050;-38
2023/06/20 02:52:05;;;;;;;23.80;21.27;;;17.00;99.90;;;;;;5136899;27;20042;-38
2023/06/20 02:55:07;;;;;;;25.80;20.90;;;17.00;99.90;;;;;;5137487;27;20051;-39
2023/06/20 02:57:37;;;;;;;21.50;19.23;;;17.00;99.90;;;;;;5137396;27;20054;-38
2023/06/20 03:00:09;;;;;;;21.23;19.13;;;17.00;99.90;;;;;;5111641;27;20771;-39
2023/06/20 03:02:39;;;;;;;22.67;20.40;;;17.00;99.90;;;;;;5136554;27;20541;-39
2023/06/20 03:05:09;;;;;;;20.52;18.52;;;17.00;99.90;;;;;;5136513;27;20057;-39
2023/06/20 03:07:35;;;;;;;22.05;19.08;;;17.00;99.90;;;;;;5136714;27;20129;-38
2023/06/20 03:10:06;;;;;;;20.70;18.42;;;17.00;99.90;;;;;;5137026;27;20047;-38
2023/06/20 03:12:32;;;;;;;19.55;17.50;;;17.00;99.90;;;;;;5136482;27;20078;-39
2023/06/20 03:14:57;;;;;;;21.10;19.02;;;17.10;99.90;;;;;;5130650;27;20501;-39
2023/06/20 03:17:23;;;;;;;22.30;19.70;;;17.10;99.90;;;;;;5115401;27;20574;-39
2023/06/20 03:19:49;;;;;;;21.77;19.50;;;17.10;99.90;;;;;;5116223;27;20130;-39
2023/06/20 03:22:15;;;;;;;21.38;18.58;;;17.10;99.90;;;;;;5116234;27;20050;-38
2023/06/20 03:24:40;;;;;;;23.70;17.92;;;17.10;99.90;;;;;;5116024;27;20477;-39
2023/06/20 03:27:06;;;;;;;19.85;17.85;;;17.10;99.90;;;;;;5115367;27;20142;-39
2023/06/20 03:29:32;;;;;;;19.73;17.75;;;17.10;99.90;;;;;;5116163;27;20055;-39
2023/06/20 03:31:58;;;;;;;20.00;17.90;;;17.20;99.90;;;;;;5097396;27;20078;-39
2023/06/20 03:34:24;;;;;;;19.77;17.75;;;17.20;99.90;;;;;;5110565;27;20481;-39
2023/06/20 03:36:50;;;;;;;21.10;19.00;;;17.20;99.90;;;;;;5120027;27;20099;-39
2023/06/20 03:39:15;;;;;;;18.63;16.73;;;17.20;99.90;;;;;;5126476;27;20039;-39
2023/06/20 03:41:41;;;;;;;20.83;18.67;;;17.20;99.90;;;;;;5119992;27;20443;-39
2023/06/20 03:44:06;;;;;;;21.17;18.27;;;17.20;99.90;;;;;;5113381;27;20508;-39
2023/06/20 03:46:32;;;;;;;22.40;18.17;;;17.30;99.90;;;;;;5115507;27;20085;-39
2023/06/20 03:48:58;;;;;;;20.50;18.23;;;17.30;99.90;;;;;;5116941;27;20377;-39
2023/06/20 03:51:23;;;;;;;20.30;18.25;;;17.30;99.90;;;;;;5115515;27;20047;-39
2023/06/20 03:53:49;;;;;;;21.30;18.65;;;17.30;99.90;;;;;;5115551;27;20471;-38
2023/06/20 03:56:15;;;;;;;20.42;18.33;;;17.40;99.90;;;;;;5115426;27;20043;-38
2023/06/20 03:58:40;;;;;;;23.38;19.00;;;17.40;99.90;;;;;;5115828;27;20446;-38
2023/06/20 04:01:06;;;;;;;21.10;18.88;;;17.40;99.90;;;;;;5114832;27;20039;-39
2023/06/20 04:03:32;;;;;;;19.88;17.75;;;17.40;99.90;;;;;;5134661;27;20050;-39
2023/06/20 04:06:02;;;;;;;19.83;17.73;;;17.40;99.90;;;;;;5134163;27;20447;-39
2023/06/20 04:08:29;;;;;;;19.98;17.85;;;17.40;99.90;;;;;;5136328;27;20050;-39
2023/06/20 04:10:55;;;;;;;20.42;17.58;;;17.50;99.90;;;;;;5121545;27;20143;-39
2023/06/20 04:13:20;;;;;;;19.77;17.30;;;17.50;99.90;;;;;;5122688;27;20146;-38
2023/06/20 04:15:46;;;;;;;20.52;18.52;;;17.50;99.90;;;;;;5135848;27;20047;-39
2023/06/20 04:18:12;;;;;;;19.63;17.73;;;17.60;99.90;;;;;;5110206;27;20039;-38
2023/06/20 04:20:37;;;;;;;19.38;17.42;;;17.60;99.90;;;;;;5114384;27;20194;-38
2023/06/20 04:23:03;;;;;;;19.73;17.73;;;17.60;99.90;;;;;;5115248;27;20568;-39
2023/06/20 04:25:29;;;;;;;20.33;17.30;;;17.70;99.90;;;;;;5115669;27;20051;-39
2023/06/20 04:27:55;;;;;;;20.27;18.33;;;17.70;99.90;;;;;;5114760;27;20580;-39
2023/06/20 04:30:22;;;;;;;18.10;16.35;;;17.70;99.90;;;;;;5115054;27;20043;-39
2023/06/20 04:32:47;;;;;;;19.95;17.30;;;17.80;99.90;;;;;;5098129;27;20134;-39
2023/06/20 04:35:14;;;;;;;22.10;17.35;;;17.80;99.90;;;;;;5085902;27;20039;-39
2023/06/20 04:37:40;;;;;;;19.38;17.05;;;17.80;99.90;;;;;;5126982;27;20043;-39
2023/06/20 04:40:07;;;;;;;17.92;16.20;;;17.90;99.90;;;;;;5103130;27;20055;-39
2023/06/20 04:42:34;;;;;;;19.67;16.45;;;17.90;99.90;;;;;;5130537;27;20404;-38
2023/06/20 04:44:59;;;;;;;17.25;15.45;;;17.90;99.90;;;;;;5121169;27;20404;-39
2023/06/20 04:47:25;;;;;;;19.48;15.63;;;17.90;99.90;;;;;;5114648;27;20050;-39
2023/06/20 04:49:51;;;;;;;18.00;16.17;;;18.00;99.90;;;;;;5114608;27;20047;-39
2023/06/20 04:52:16;;;;;;;16.77;15.18;;;18.00;99.90;;;;;;5095388;27;20042;-39
2023/06/20 04:54:42;;;;;;;16.33;14.63;;;18.00;99.90;;;;;;5114056;27;20220;-39
2023/06/20 04:57:08;;;;;;;16.70;14.68;;;18.10;99.90;;;;;;5094544;27;20237;-39
2023/06/20 04:59:35;;;;;;;16.55;14.95;;;18.10;99.90;;;;;;5085886;28;20405;-39
2023/06/20 05:02:05;;;;;;;16.20;14.50;;;18.10;99.90;;;;;;5094686;27;20558;-39
2023/06/20 05:04:31;;;;;;;17.48;15.65;;;18.10;99.90;;;;;;5114978;27;20552;-39
2023/06/20 05:06:56;;;;;;;16.80;15.18;;;18.20;99.90;;;;;;5095690;27;20501;-39
2023/06/20 05:09:22;;;;;;;17.38;15.10;;;18.20;99.90;;;;;;5114066;27;20039;-39
2023/06/20 05:11:48;;;;;;;17.00;15.20;;;18.20;99.90;;;;;;5113921;27;20047;-39
2023/06/20 05:14:14;;;;;;;16.67;14.40;;;18.20;99.90;;;;;;5096297;27;20505;-39
2023/06/20 05:16:39;;;;;;;15.02;13.52;;;18.30;99.90;;;;;;5113512;27;20828;-39
2023/06/20 05:19:05;;;;;;;19.40;14.80;;;18.30;99.90;;;;;;5113934;27;20049;-39
2023/06/20 05:21:30;;;;;;;16.63;14.93;;;18.30;99.90;;;;;;5114157;27;20082;-39
2023/06/20 05:23:56;;;;;;;17.85;15.10;;;18.30;99.90;;;;;;5114051;27;20054;-39
2023/06/20 05:26:22;;;;;;;17.77;14.60;;;18.30;99.90;;;;;;5113472;27;20062;-39
2023/06/20 05:28:47;;;;;;;16.52;14.93;;;18.40;99.90;;;;;;5114374;27;20079;-39
2023/06/20 05:31:13;;;;;;;17.05;15.23;;;18.40;99.90;;;;;;5115236;27;20077;-39
2023/06/20 05:33:38;;;;;;;17.67;15.88;;;18.40;99.90;;;;;;5113748;27;20047;-39
2023/06/20 05:36:04;;;;;;;16.38;14.77;;;18.50;99.90;;;;;;5105862;27;20078;-38
2023/06/20 05:38:31;;;;;;;17.23;15.52;;;18.50;99.90;;;;;;5108918;27;20074;-39
2023/06/20 05:40:58;;;;;;;20.35;15.35;;;18.60;99.90;;;;;;5081006;28;20062;-39
2023/06/20 05:43:24;;;;;;;16.52;14.85;;;18.60;99.90;;;;;;5105501;27;20409;-38
2023/06/20 05:45:50;;;;;;;17.38;15.90;;;18.60;99.90;;;;;;5114981;27;20409;-38
2023/06/20 05:48:15;;;;;;;17.83;15.52;;;18.70;99.90;;;;;;5090165;28;20054;-38
2023/06/20 05:50:41;;;;;;;19.00;16.08;;;18.70;99.90;;;;;;5081191;28;20039;-38
2023/06/20 05:53:07;;;;;;;18.33;15.18;;;18.70;99.90;;;;;;5094870;28;20153;-38
2023/06/20 05:55:33;;;;;;;18.42;15.50;;;18.80;99.90;;;;;;5112931;27;20053;-39
2023/06/20 05:57:59;;;;;;;17.10;15.50;;;18.80;99.90;;;;;;5113891;28;20043;-38
2023/06/20 06:00:24;;;;;;;18.05;16.27;;;18.90;99.90;;;;;;5113274;27;20165;-38
2023/06/20 06:02:50;;;;;;;20.52;16.35;;;18.90;99.90;;;;;;5095710;27;20150;-38
2023/06/20 06:05:16;;;;;;;17.80;15.70;;;19.10;99.90;;;;;;5097742;27;20039;-38
2023/06/20 06:07:42;;;;;;;18.15;15.88;;;19.30;99.90;;;;;;5116734;27;20150;-39
2023/06/20 06:10:10;;;;;;;18.55;16.63;;;19.70;99.90;;;;;;5116641;27;20077;-39
2023/06/20 06:12:36;;;;;;;16.35;14.77;;;20.10;99.90;;;;;;5118081;27;20110;-39
2023/06/20 06:15:05;;;;;;;17.63;15.32;;;20.50;99.90;;;;;;5118833;27;20054;-39
2023/06/20 06:17:32;;;;;;;16.33;14.70;;;21.00;99.90;;;;;;5117707;27;20051;-39
2023/06/20 06:19:57;;;;;;;18.02;16.25;;;21.50;99.90;;;;;;5118021;27;20035;-39
2023/06/20 06:22:24;;;;;;;16.27;14.70;;;21.80;99.90;;;;;;5116617;27;20043;-39
2023/06/20 06:24:49;;;;;;;15.65;14.25;;;21.90;99.90;;;;;;5116709;27;20074;-39
2023/06/20 06:27:17;;;;;;;17.88;15.73;;;21.90;99.90;;;;;;5118113;27;20130;-39
2023/06/20 06:29:43;;;;;;;17.33;15.55;;;21.90;99.90;;;;;;5116978;27;20039;-39
2023/06/20 06:32:09;;;;;;;17.98;15.90;;;21.80;99.90;;;;;;5097719;27;20557;-39
2023/06/20 06:34:35;;;;;;;16.17;14.68;;;21.70;99.90;;;;;;5089517;28;20051;-39
2023/06/20 06:37:01;;;;;;;17.00;15.20;;;21.60;99.90;;;;;;5123913;27;20110;-39
2023/06/20 06:39:27;;;;;;;16.45;14.85;;;21.50;99.90;;;;;;5123016;27;20040;-39
2023/06/20 06:41:53;;;;;;;16.85;15.23;;;21.30;99.90;;;;;;5124419;27;20046;-39
2023/06/20 06:44:19;;;;;;;16.05;14.60;;;21.20;99.90;;;;;;5112949;27;20078;-39
2023/06/20 06:46:44;;;;;;;18.42;15.35;;;21.20;99.90;;;;;;5117541;27;20047;-39
2023/06/20 06:49:10;;;;;;;18.80;15.57;;;21.20;99.90;;;;;;5117395;27;20066;-39
2023/06/20 06:51:39;;;;;;;16.70;15.02;;;21.20;99.90;;;;;;5116517;27;20502;-39
2023/06/20 06:54:05;;;;;;;15.98;14.57;;;21.20;99.90;;;;;;5116845;27;20046;-39
2023/06/20 06:56:32;;;;;;;16.88;15.38;;;21.20;99.90;;;;;;5097801;27;20054;-39
2023/06/20 06:59:00;;;;;;;17.50;15.90;;;21.20;99.90;;;;;;5117209;27;20074;-42
2023/06/20 07:01:28;;;;;;;16.02;14.43;;;21.30;99.90;;;;;;5098002;27;20043;-39
2023/06/20 07:03:54;;;;;;;17.00;15.40;;;21.30;99.90;;;;;;5116507;27;20047;-39
2023/06/20 07:06:20;;;;;;;17.20;15.45;;;21.30;99.90;;;;;;5115777;27;20505;-40
2023/06/20 07:08:46;;;;;;;18.05;16.35;;;21.40;99.90;;;;;;5098022;27;20054;-39
2023/06/20 07:11:11;;;;;;;17.17;15.45;;;21.40;99.90;;;;;;5096689;27;20122;-39
2023/06/20 07:13:37;;;;;;;16.95;15.25;;;21.40;99.90;;;;;;5117056;27;20448;-39
2023/06/20 07:16:03;;;;;;;16.88;15.18;;;21.50;99.90;;;;;;5117033;27;20074;-40
2023/06/20 07:18:29;;;;;;;16.30;14.82;;;21.50;99.90;;;;;;5116754;27;20562;-39
2023/06/20 07:20:57;;;;;;;16.50;15.02;;;21.50;99.90;;;;;;5115624;27;20039;-40
2023/06/20 07:23:23;;;;;;;17.08;15.43;;;21.50;99.90;;;;;;5097768;27;20043;-39
2023/06/20 07:25:49;;;;;;;16.95;15.30;;;21.50;99.90;;;;;;5115167;27;20092;-39
2023/06/20 07:28:14;;;;;;;17.58;15.98;;;21.50;99.90;;;;;;5115900;27;20138;-39
2023/06/20 07:30:40;;;;;;;16.95;15.25;;;21.50;99.90;;;;;;5114855;27;20084;-39
2023/06/20 07:33:06;;;;;;;18.67;17.00;;;21.60;99.90;;;;;;5116062;27;20148;-39
2023/06/20 07:35:32;;;;;;;18.05;16.02;;;21.50;99.90;;;;;;5101451;27;20479;-39
2023/06/20 07:37:58;;;;;;;17.52;15.80;;;21.50;99.90;;;;;;5115412;27;20125;-39
2023/06/20 07:40:24;;;;;;;16.85;15.32;;;21.50;99.90;;;;;;5101807;27;20498;-39
2023/06/20 07:42:49;;;;;;;18.35;16.33;;;21.50;99.90;;;;;;5110088;27;20048;-39
2023/06/20 07:45:15;;;;;;;17.02;15.30;;;21.50;99.90;;;;;;5109678;27;20456;-39
2023/06/20 07:47:40;;;;;;;17.52;15.73;;;21.70;99.90;;;;;;5115424;27;20127;-39
2023/06/20 07:50:07;;;;;;;16.48;14.77;;;21.90;99.90;;;;;;5114792;27;20038;-39
2023/06/20 07:52:33;;;;;;;16.65;15.10;;;22.10;99.90;;;;;;5116202;27;20055;-39
2023/06/20 07:55:01;;;;;;;16.98;15.38;;;22.30;99.90;;;;;;5115604;27;20238;-39
2023/06/20 07:57:27;;;;;;;16.30;14.80;;;22.50;99.90;;;;;;5114395;27;20497;-40
2023/06/20 07:59:53;;;;;;;16.55;14.98;;;22.70;99.90;;;;;;5113783;27;20043;-39
2023/06/20 08:02:18;;;;;;;15.77;14.35;;;22.80;99.90;;;;;;5114722;27;20123;-39
2023/06/20 08:04:44;;;;;;;15.73;14.32;;;23.00;99.90;;;;;;5115156;27;20046;-40
2023/06/20 08:07:10;;;;;;;16.70;15.25;;;23.10;99.90;;;;;;5115128;27;20605;-40
2023/06/20 08:09:35;;;;;;;14.90;13.55;;;23.30;99.90;;;;;;5116134;27;20786;-40
2023/06/20 08:12:01;;;;;;;16.10;14.63;;;23.60;99.90;;;;;;5114157;27;20561;-39
2023/06/20 08:14:26;;;;;;;15.40;13.93;;;23.90;99.90;;;;;;5113839;27;20608;-39
2023/06/20 08:16:52;;;;;;;14.55;13.25;;;24.00;99.90;;;;;;5113509;27;20079;-40
2023/06/20 08:19:18;;;;;;;14.00;12.77;;;24.10;99.90;;;;;;5113769;27;20466;-40
2023/06/20 08:21:43;;;;;;;15.60;14.02;;;24.20;99.90;;;;;;5076134;27;20042;-41
2023/06/20 08:24:09;;;;;;;15.63;14.10;;;24.30;99.90;;;;;;5108798;27;20460;-39
2023/06/20 08:26:35;;;;;;;14.82;13.57;;;24.50;99.90;;;;;;5084087;28;20452;-39
2023/06/20 08:29:00;;;;;;;14.73;13.52;;;24.40;99.90;;;;;;5110273;27;20045;-39
2023/06/20 08:31:36;;;;;;;15.85;13.65;;;24.40;99.90;;;;;;5094635;27;20050;-40
2023/06/20 08:34:03;;;;;;;15.23;13.57;;;24.40;99.90;;;;;;5086681;27;20884;-40
2023/06/20 08:36:28;;;;;;;14.95;13.48;;;24.40;99.90;;;;;;5083817;27;20043;-40
2023/06/20 08:38:54;;;;;;;14.95;13.65;;;24.70;99.90;;;;;;5106411;27;20485;-40
2023/06/20 08:41:24;;;;;;;14.77;13.38;;;25.00;99.90;;;;;;5106359;27;20806;-40
2023/06/20 08:43:50;;;;;;;15.85;14.40;;;25.20;99.90;;;;;;5115360;27;20047;-39
2023/06/20 08:46:16;;;;;;;14.88;13.45;;;25.60;99.90;;;;;;5114529;27;20054;-41
2023/06/20 08:48:41;;;;;;;15.25;13.88;;;25.80;99.90;;;;;;5113044;27;20043;-42
2023/06/20 08:51:07;;;;;;;15.38;13.98;;;25.70;99.90;;;;;;5109871;27;20035;-41
2023/06/20 08:53:34;;;;;;;15.85;14.32;;;25.80;99.90;;;;;;5113309;27;20131;-41
2023/06/20 08:56:01;;;;;;;16.05;14.45;;;25.80;99.90;;;;;;5113625;27;20087;-39
2023/06/20 08:58:26;;;;;;;14.73;13.45;;;25.70;99.90;;;;;;5123891;27;20581;-40
2023/06/20 09:00:52;;;;;;;15.85;14.43;;;26.00;99.90;;;;;;5116720;27;20402;-41
2023/06/20 09:03:18;;;;;;;15.27;13.70;;;26.30;99.90;;;;;;5114447;27;20046;-40
2023/06/20 09:05:45;;;;;;;15.18;13.77;;;26.60;99.90;;;;;;5119851;27;20125;-40
2023/06/20 09:08:15;;;;;;;12.98;11.80;;;26.50;99.90;;;;;;5095165;27;20632;-40
2023/06/20 09:10:41;;;;;;;14.63;13.27;;;26.10;99.90;;;;;;5113249;27;20035;-40
2023/06/20 09:13:08;;;;;;;14.85;13.48;;;26.00;99.90;;;;;;5113412;27;20456;-40
2023/06/20 09:15:34;;;;;;;14.50;13.13;;;26.10;99.90;;;;;;5113401;27;20555;-41
2023/06/20 09:18:01;;;;;;;14.48;13.18;;;26.10;99.90;;;;;;5113819;27;20098;-40
2023/06/20 09:20:29;;;;;;;13.95;12.75;;;26.10;99.90;;;;;;5113953;27;20146;-40
2023/06/20 09:22:55;;;;;;;15.18;13.82;;;26.10;99.90;;;;;;5114214;27;20114;-41
2023/06/20 09:25:23;;;;;;;14.23;12.98;;;26.20;99.90;;;;;;5095504;27;20049;-40
2023/06/20 09:27:50;;;;;;;15.30;13.50;;;26.30;99.90;;;;;;5114273;27;20043;-40
2023/06/20 09:30:15;;;;;;;16.20;14.77;;;26.40;99.90;;;;;;5114103;27;20789;-41
2023/06/20 09:32:42;;;;;;;16.08;14.07;;;26.30;99.90;;;;;;5114566;27;20054;-40
2023/06/20 09:35:15;;;;;;;14.57;13.25;;;26.40;99.90;;;;;;5082644;28;20036;-40
2023/06/20 09:37:41;;;;;;;13.85;12.60;;;26.50;99.90;;;;;;5094056;28;20118;-41
2023/06/20 09:40:11;;;;;;;15.30;13.77;;;26.80;99.90;;;;;;5114395;27;20047;-40
2023/06/20 09:42:38;;;;;;;15.52;14.02;;;27.10;99.90;;;;;;5116372;27;20051;-40
2023/06/20 09:45:04;;;;;;;14.73;13.50;;;27.20;99.90;;;;;;5111172;27;20045;-40
2023/06/20 09:47:30;;;;;;;14.02;12.77;;;27.10;99.90;;;;;;5117504;27;20055;-40
2023/06/20 09:49:59;;;;;;;15.30;13.85;;;27.20;99.90;;;;;;5117252;27;20454;-41
2023/06/20 09:52:50;;;;;;;14.57;13.27;;;27.00;99.90;;;;;;5117465;27;20147;-40
2023/06/20 09:55:20;;;;;;;15.10;13.80;;;27.00;99.90;;;;;;5000774;28;20190;-41
2023/06/20 09:57:57;;;;;;;15.20;13.93;;;27.00;99.90;;;;;;4998496;28;20136;-40
2023/06/20 10:00:26;;;;;;;13.27;11.98;;;27.00;99.90;;;;;;4997298;28;20053;-40
2023/06/20 10:03:13;;;;;;;13.90;12.57;;;27.10;99.90;;;;;;5014954;28;20140;-41
2023/06/20 10:05:39;;;;;;;13.60;12.27;;;27.30;99.90;;;;;;4955459;28;20167;-40
2023/06/20 10:08:06;;;;;;;13.43;12.05;;;27.40;99.90;;;;;;4955612;28;20071;-41
2023/06/20 10:10:32;;;;;;;12.82;11.68;;;27.40;99.90;;;;;;4945697;28;20062;-41
2023/06/20 10:12:58;;;;;;;14.10;12.93;;;27.60;99.90;;;;;;4951234;28;20417;-40
2023/06/20 10:15:24;;;;;;;13.93;12.68;;;27.50;99.90;;;;;;4954361;28;20085;-40
2023/06/20 10:17:50;;;;;;;12.07;11.07;;;27.60;99.90;;;;;;4939174;28;20857;-40
2023/06/20 10:20:31;;;;;;;14.85;13.73;;;27.60;99.90;;;;;;4954570;28;20051;-40
2023/06/20 10:23:03;;;;;;;14.68;13.27;;;27.60;99.90;;;;;;4954858;28;20141;-40
2023/06/20 10:25:29;;;;;;;12.68;11.52;;;27.60;99.90;;;;;;4954586;28;20521;-40
2023/06/20 10:28:03;;;;;;;12.48;11.48;;;27.70;99.90;;;;;;4920166;28;20059;-40
2023/06/20 10:30:49;;;;;;;13.98;12.68;;;27.90;99.90;;;;;;4949423;28;20125;-40
2023/06/20 10:33:44;;;;;;;12.23;11.00;;;28.00;99.90;;;;;;5037737;28;20447;-41
2023/06/20 10:36:12;;;;;;;13.23;11.93;;;28.10;99.90;;;;;;4988748;28;20080;-41
2023/06/20 10:38:59;;;;;;;11.77;10.65;;;28.00;99.90;;;;;;5019661;28;20045;-40
2023/06/20 10:41:28;;;;;;;11.43;10.32;;;28.10;99.90;;;;;;5023256;28;20465;-40
2023/06/20 10:43:58;;;;;;;12.15;10.95;;;28.20;99.90;;;;;;5026101;28;20079;-40
2023/06/20 10:46:46;;;;;;;13.05;9.85;;;28.10;99.90;;;;;;5003183;28;20065;-40
2023/06/20 10:49:12;;;;;;;12.10;11.02;;;27.90;99.90;;;;;;5003800;28;20049;-40
2023/06/20 10:51:47;;;;;;;12.48;11.38;;;27.80;99.90;;;;;;5031657;28;20211;-40
2023/06/20 10:54:14;;;;;;;10.77;9.88;;;27.80;99.90;;;;;;5033459;28;20136;-40
2023/06/20 10:56:40;;;;;;;12.77;11.38;;;27.90;99.90;;;;;;5016235;28;20531;-40
2023/06/20 10:59:15;;;;;;;12.13;10.82;;;27.90;99.90;;;;;;5007862;28;20049;-41
2023/06/20 11:01:41;;;;;;;11.43;10.43;;;28.00;99.90;;;;;;5029094;28;20569;-40
2023/06/20 11:04:13;;;;;;;12.93;10.45;;;27.90;99.90;;;;;;5033102;28;20603;-41
2023/06/20 11:06:40;;;;;;;12.00;10.13;;;28.10;99.90;;;;;;5027287;28;20491;-41
2023/06/20 11:09:16;;;;;;;10.65;9.85;;;28.20;99.90;;;;;;5024497;28;20048;-43
2023/06/20 11:11:42;;;;;;;9.15;8.10;;;28.30;99.90;;;;;;5039569;28;20334;-40
2023/06/20 11:14:18;;;;;;;9.75;8.73;;;28.30;99.90;;;;;;5109593;27;20054;-41
2023/06/20 11:16:44;;;;;;;9.60;8.85;;;28.30;99.90;;;;;;5116192;27;20058;-40
2023/06/20 11:19:10;;;;;;;9.73;8.93;;;28.30;99.90;;;;;;5116912;27;20104;-42
2023/06/20 11:21:36;;;;;;;9.77;8.88;;;28.40;99.90;;;;;;5116299;27;20495;-40
2023/06/20 11:24:03;;;;;;;10.55;9.40;;;28.50;99.90;;;;;;5098296;27;20094;-40
2023/06/20 11:26:30;;;;;;;9.70;9.00;;;28.60;99.90;;;;;;5116065;27;20146;-41
2023/06/20 11:29:03;;;;;;;9.15;8.35;;;28.40;99.90;;;;;;5097563;27;20074;-40
2023/06/20 11:31:30;;;;;;;9.35;8.40;;;28.40;99.90;;;;;;5115688;27;20451;-40
2023/06/20 11:34:12;;;;;;;8.85;8.02;;;28.50;99.90;;;;;;5114096;27;20054;-39
2023/06/20 11:36:39;;;;;;;8.82;8.07;;;28.80;99.90;;;;;;5116556;27;20108;-40
2023/06/20 11:39:13;;;;;;;10.07;9.27;;;28.90;99.90;;;;;;5100592;27;20054;-44
2023/06/20 11:41:39;;;;;;;9.10;8.32;;;28.90;99.90;;;;;;5106547;27;20374;-41
2023/06/20 11:44:20;;;;;;;9.82;8.90;;;28.90;99.90;;;;;;5111517;27;20038;-41
2023/06/20 11:46:45;;;;;;;11.20;10.20;;;28.70;99.90;;;;;;5089321;27;20050;-39
2023/06/20 11:49:11;;;;;;;10.27;9.27;;;28.70;99.90;;;;;;5115740;27;20047;-39
2023/06/20 11:51:38;;;;;;;12.40;9.32;;;28.60;99.90;;;;;;5097485;27;20081;-41
2023/06/20 11:54:12;;;;;;;10.68;8.80;;;28.60;99.90;;;;;;5136188;27;20042;-41
2023/06/20 11:56:38;;;;;;;9.75;8.52;;;28.70;99.90;;;;;;5117984;27;20480;-40
2023/06/20 11:59:04;;;;;;;10.60;9.35;;;28.90;99.90;;;;;;5136808;27;20046;-39
2023/06/20 12:01:32;;;;;;;9.20;8.38;;;29.00;99.90;;;;;;5135297;27;20615;-42
2023/06/20 12:04:06;;;;;;;8.57;7.78;;;29.30;99.90;;;;;;5126796;27;20086;-40
2023/06/20 12:06:33;;;;;;;8.25;7.55;;;29.60;99.90;;;;;;5114623;27;20554;-39
2023/06/20 12:08:59;;;;;;;9.13;8.35;;;29.90;99.90;;;;;;5115268;27;20104;-39
2023/06/20 12:11:26;;;;;;;9.13;8.32;;;29.90;99.90;;;;;;5114272;27;20064;-39
2023/06/20 12:13:52;;;;;;;8.35;7.50;;;29.60;99.60;;;;;;5114580;27;20425;-41
2023/06/20 12:16:19;;;;;;;8.50;7.70;;;29.50;99.90;;;;;;5114575;27;20054;-41
2023/06/20 12:18:49;;;;;;;9.13;8.32;;;29.60;99.90;;;;;;5115252;27;20207;-40
2023/06/20 12:21:15;;;;;;;9.63;8.68;;;29.50;99.70;;;;;;5114714;27;20115;-41
2023/06/20 12:23:41;;;;;;;9.80;9.00;;;29.30;99.70;;;;;;5115024;27;20051;-41
2023/06/20 12:26:10;;;;;;;8.70;7.90;;;29.10;99.90;;;;;;5095582;27;20807;-40
2023/06/20 12:28:36;;;;;;;7.82;7.13;;;29.30;99.90;;;;;;5115679;27;20047;-40
2023/06/20 12:31:03;;;;;;;8.20;7.53;;;29.40;99.50;;;;;;5114649;27;20043;-43
2023/06/20 12:33:29;;;;;;;7.75;7.05;;;29.60;99.90;;;;;;5095843;27;20070;-40